Time;durP1;ratioP1;P1;durP2;ratioP2;P2;SDS_P1;SDS_P2;PMS_P1;PMS_P2;Temp;Humidity;BMP_temperature;BMP_pressure;BME280_temperature;BME280_humidity;BME280_pressure;Samples;Min_cycle;Max_cycle;Signal;HPM_P1;HPM_P2
2022/09/21 00:00:45;;;;;;;11.13;2.10;;;;;;;;;;4972723;28;20210;-79
2022/09/21 00:03:12;;;;;;;16.17;3.10;;;;;;;;;;4940750;29;20182;-78
2022/09/21 00:05:38;;;;;;;17.27;2.30;;;;;;;;;;4972745;28;20197;-79
2022/09/21 00:08:05;;;;;;;15.73;3.10;;;;;;;;;;4972537;28;20180;-79
2022/09/21 00:10:31;;;;;;;3.90;1.87;;;;;;;;;;4940291;29;20218;-78
2022/09/21 00:12:58;;;;;;;6.13;2.27;;;;;;;;;;4940649;29;20188;-79
2022/09/21 00:15:24;;;;;;;6.67;1.93;;;;;;;;;;4940682;29;20181;-79
2022/09/21 00:17:54;;;;;;;13.50;2.30;;;;;;;;;;4940633;28;20261;-79
2022/09/21 00:20:20;;;;;;;6.30;2.20;;;;;;;;;;4972368;28;20205;-79
2022/09/21 00:22:46;;;;;;;8.00;2.10;;;;;;;;;;4972382;28;20177;-79
2022/09/21 00:25:13;;;;;;;2.63;1.60;;;;;;;;;;4940436;29;20668;-79
2022/09/21 00:27:39;;;;;;;4.17;1.50;;;;;;;;;;4972407;28;20613;-79
2022/09/21 00:30:05;;;;;;;4.20;1.60;;;;;;;;;;4940050;29;20204;-79
2022/09/21 00:32:32;;;;;;;7.60;2.17;;;;;;;;;;4972199;28;20239;-79
2022/09/21 00:34:59;;;;;;;8.60;1.93;;;;;;;;;;4972228;28;20190;-79
2022/09/21 00:37:25;;;;;;;2.90;2.00;;;;;;;;;;4971967;28;20186;-79
2022/09/21 00:39:51;;;;;;;6.03;1.80;;;;;;;;;;4972005;28;20232;-79
2022/09/21 00:42:19;;;;;;;3.90;2.07;;;;;;;;;;4972308;28;20233;-79
2022/09/21 00:44:45;;;;;;;3.53;1.70;;;;;;;;;;4940161;29;20178;-79
2022/09/21 00:47:13;;;;;;;5.53;1.73;;;;;;;;;;4940182;29;20589;-79
2022/09/21 00:49:40;;;;;;;4.00;1.80;;;;;;;;;;4939606;29;20201;-79
2022/09/21 00:52:07;;;;;;;2.50;1.50;;;;;;;;;;4971761;28;20178;-79
2022/09/21 00:54:38;;;;;;;2.57;1.43;;;;;;;;;;4971999;28;20177;-79
2022/09/21 00:57:04;;;;;;;2.80;1.50;;;;;;;;;;4971925;28;20264;-78
2022/09/21 00:59:31;;;;;;;2.37;1.40;;;;;;;;;;4971259;28;20293;-79
2022/09/21 01:01:58;;;;;;;2.83;1.50;;;;;;;;;;4971138;28;20227;-79
2022/09/21 01:04:27;;;;;;;1.83;1.50;;;;;;;;;;4971799;28;20177;-79
2022/09/21 01:06:53;;;;;;;2.83;1.60;;;;;;;;;;4971501;28;20208;-79
2022/09/21 01:09:19;;;;;;;2.63;1.80;;;;;;;;;;4971728;28;20200;-79
2022/09/21 01:11:45;;;;;;;1.67;1.57;;;;;;;;;;4939797;29;20213;-78
2022/09/21 01:14:17;;;;;;;3.77;1.73;;;;;;;;;;4971533;28;20177;-79
2022/09/21 01:16:43;;;;;;;2.63;1.60;;;;;;;;;;4971490;28;20180;-79
2022/09/21 01:19:28;;;;;;;1.50;1.40;;;;;;;;;;4971174;28;20224;-79
2022/09/21 01:22:06;;;;;;;2.40;1.33;;;;;;;;;;4971187;28;20263;-79
2022/09/21 01:24:32;;;;;;;3.03;1.63;;;;;;;;;;4956424;28;20169;-79
2022/09/21 01:27:10;;;;;;;1.43;1.33;;;;;;;;;;4971129;28;20171;-79
2022/09/21 01:29:43;;;;;;;1.60;1.50;;;;;;;;;;4971058;28;20193;-79
2022/09/21 01:32:16;;;;;;;1.30;1.20;;;;;;;;;;4971350;28;20224;-79
2022/09/21 01:35:01;;;;;;;2.17;1.30;;;;;;;;;;4971109;28;20177;-78
2022/09/21 01:37:40;;;;;;;1.40;1.30;;;;;;;;;;4971210;28;20177;-79
2022/09/21 01:40:09;;;;;;;1.93;1.63;;;;;;;;;;4970771;28;20244;-79
2022/09/21 01:42:37;;;;;;;2.00;1.57;;;;;;;;;;4939236;29;20186;-79
2022/09/21 01:45:06;;;;;;;1.60;1.50;;;;;;;;;;4971005;28;20173;-78
2022/09/21 01:47:32;;;;;;;2.60;1.77;;;;;;;;;;4938974;29;20181;-79
2022/09/21 01:50:00;;;;;;;7.17;1.70;;;;;;;;;;4970675;28;20224;-79
2022/09/21 01:52:31;;;;;;;5.67;1.70;;;;;;;;;;4970690;28;20552;-79
2022/09/21 01:55:03;;;;;;;5.80;1.70;;;;;;;;;;4971108;28;20183;-79
2022/09/21 01:57:42;;;;;;;1.70;1.50;;;;;;;;;;4970684;28;20729;-78
2022/09/21 02:00:09;;;;;;;2.27;1.50;;;;;;;;;;4970352;28;20212;-79
2022/09/21 02:02:41;;;;;;;6.77;2.33;;;;;;;;;;4938799;29;20284;-79
2022/09/21 02:05:08;;;;;;;2.73;1.50;;;;;;;;;;4970647;28;20184;-79
2022/09/21 02:07:35;;;;;;;3.50;1.70;;;;;;;;;;4970530;28;20195;-78
2022/09/21 02:10:01;;;;;;;1.60;1.50;;;;;;;;;;4970370;28;20204;-79
2022/09/21 02:12:30;;;;;;;1.73;1.63;;;;;;;;;;4970454;28;20279;-78
2022/09/21 02:14:56;;;;;;;2.57;1.40;;;;;;;;;;4970326;28;20177;-78
2022/09/21 02:17:36;;;;;;;1.60;1.50;;;;;;;;;;4938323;29;20188;-79
2022/09/21 02:20:02;;;;;;;5.30;2.90;;;;;;;;;;4970110;28;20231;-78
2022/09/21 02:22:34;;;;;;;2.80;1.77;;;;;;;;;;4970463;28;20188;-78
2022/09/21 02:25:06;;;;;;;3.80;1.50;;;;;;;;;;4970042;28;20584;-78
2022/09/21 02:27:32;;;;;;;11.50;1.90;;;;;;;;;;4938211;29;20181;-78
2022/09/21 02:30:09;;;;;;;10.70;2.10;;;;;;;;;;4969860;28;20200;-77
2022/09/21 02:32:45;;;;;;;1.77;1.43;;;;;;;;;;4970166;28;20190;-79
2022/09/21 02:35:11;;;;;;;1.50;1.40;;;;;;;;;;4970248;28;20188;-79
2022/09/21 02:37:37;;;;;;;3.40;1.60;;;;;;;;;;4969627;28;20184;-79
2022/09/21 02:40:08;;;;;;;4.33;1.40;;;;;;;;;;4954636;28;20202;-79
2022/09/21 02:42:37;;;;;;;8.73;1.70;;;;;;;;;;4955133;28;20176;-78
2022/09/21 02:45:24;;;;;;;4.33;1.40;;;;;;;;;;4969888;28;20186;-79
2022/09/21 02:47:54;;;;;;;3.00;1.43;;;;;;;;;;4969488;28;20701;-79
2022/09/21 02:50:23;;;;;;;1.40;1.30;;;;;;;;;;4969632;28;20329;-79
2022/09/21 02:52:49;;;;;;;2.27;1.50;;;;;;;;;;4969851;28;20184;-79
2022/09/21 02:55:16;;;;;;;1.53;1.30;;;;;;;;;;4937937;29;20308;-78
2022/09/21 02:57:42;;;;;;;1.20;1.10;;;;;;;;;;4937793;29;20188;-78
2022/09/21 03:00:09;;;;;;;1.20;1.10;;;;;;;;;;4937255;29;20223;-77
2022/09/21 03:02:39;;;;;;;1.33;1.23;;;;;;;;;;4937877;29;20231;-78
2022/09/21 03:05:05;;;;;;;1.30;1.20;;;;;;;;;;4969493;28;20177;-78
2022/09/21 03:07:31;;;;;;;1.27;1.17;;;;;;;;;;4937967;29;20239;-79
2022/09/21 03:09:57;;;;;;;1.13;1.03;;;;;;;;;;4969663;28;20294;-78
2022/09/21 03:12:23;;;;;;;1.40;1.30;;;;;;;;;;4937552;29;20286;-78
2022/09/21 03:14:50;;;;;;;1.43;1.33;;;;;;;;;;4937729;29;20185;-78
2022/09/21 03:17:16;;;;;;;4.37;1.37;;;;;;;;;;4969568;28;20302;-79
2022/09/21 03:19:42;;;;;;;3.90;1.53;;;;;;;;;;4969040;28;20310;-79
2022/09/21 03:22:08;;;;;;;3.70;1.20;;;;;;;;;;4937410;29;20256;-79
2022/09/21 03:24:46;;;;;;;1.27;1.10;;;;;;;;;;4936859;29;20662;-79
2022/09/21 03:27:13;;;;;;;4.93;1.30;;;;;;;;;;4969505;28;20188;-79
2022/09/21 03:29:39;;;;;;;3.73;1.33;;;;;;;;;;4969375;28;20228;-78
2022/09/21 03:32:05;;;;;;;2.43;1.40;;;;;;;;;;4969435;28;20230;-78
2022/09/21 03:34:33;;;;;;;2.47;1.33;;;;;;;;;;4969588;28;20181;-78
2022/09/21 03:36:59;;;;;;;4.47;1.37;;;;;;;;;;4937424;29;20666;-79
2022/09/21 03:39:25;;;;;;;4.73;1.67;;;;;;;;;;4968812;28;20208;-78
2022/09/21 03:41:54;;;;;;;3.77;1.70;;;;;;;;;;4937347;29;20216;-77
2022/09/21 03:44:20;;;;;;;7.40;1.57;;;;;;;;;;4969328;28;20184;-79
2022/09/21 03:46:46;;;;;;;6.20;1.37;;;;;;;;;;4937149;29;20331;-78
2022/09/21 03:49:12;;;;;;;4.23;1.30;;;;;;;;;;4937150;29;20697;-79
2022/09/21 03:51:39;;;;;;;1.30;1.20;;;;;;;;;;4937614;29;20184;-79
2022/09/21 03:54:05;;;;;;;2.07;1.20;;;;;;;;;;4937461;29;20247;-79
2022/09/21 03:56:31;;;;;;;6.60;1.40;;;;;;;;;;4937654;29;20188;-79
2022/09/21 03:58:57;;;;;;;8.00;1.30;;;;;;;;;;4937254;29;20255;-79
2022/09/21 04:01:23;;;;;;;4.57;1.20;;;;;;;;;;4937385;29;20208;-79
2022/09/21 04:03:49;;;;;;;6.87;1.43;;;;;;;;;;4953332;28;20603;-79
2022/09/21 04:06:15;;;;;;;14.43;2.03;;;;;;;;;;4937321;29;20184;-79
2022/09/21 04:08:41;;;;;;;15.60;1.87;;;;;;;;;;4937566;29;20256;-79
2022/09/21 04:11:11;;;;;;;8.60;1.60;;;;;;;;;;4937120;29;20192;-79
2022/09/21 04:13:37;;;;;;;9.20;1.87;;;;;;;;;;4969354;28;20181;-79
2022/09/21 04:16:03;;;;;;;12.13;1.77;;;;;;;;;;4953206;28;20184;-79
2022/09/21 04:18:31;;;;;;;9.90;1.77;;;;;;;;;;4937026;29;20762;-79
2022/09/21 04:20:57;;;;;;;13.33;1.50;;;;;;;;;;4937170;29;20220;-79
2022/09/21 04:23:23;;;;;;;7.03;1.50;;;;;;;;;;4969270;28;20180;-79
2022/09/21 04:25:52;;;;;;;6.90;1.77;;;;;;;;;;4954285;28;20598;-79
2022/09/21 04:28:18;;;;;;;3.43;1.40;;;;;;;;;;4968858;28;20195;-79
2022/09/21 04:30:43;;;;;;;2.57;1.17;;;;;;;;;;4936783;29;20292;-79
2022/09/21 04:33:09;;;;;;;7.40;1.40;;;;;;;;;;4968934;28;20223;-79
2022/09/21 04:35:36;;;;;;;3.47;1.20;;;;;;;;;;4937841;29;20239;-79
2022/09/21 04:38:02;;;;;;;4.00;1.30;;;;;;;;;;4972238;28;20188;-79
2022/09/21 04:40:28;;;;;;;3.33;1.10;;;;;;;;;;4956300;29;20214;-79
2022/09/21 04:42:54;;;;;;;2.00;1.10;;;;;;;;;;4940554;29;20182;-79
2022/09/21 04:45:20;;;;;;;6.20;1.50;;;;;;;;;;4972342;28;20191;-79
2022/09/21 04:47:46;;;;;;;5.03;1.47;;;;;;;;;;4940881;29;20184;-79
2022/09/21 04:50:12;;;;;;;2.80;1.20;;;;;;;;;;4940241;29;20331;-79
2022/09/21 04:52:38;;;;;;;3.83;1.30;;;;;;;;;;4940341;29;20239;-79
2022/09/21 04:55:05;;;;;;;3.07;1.37;;;;;;;;;;4940589;29;20199;-79
2022/09/21 04:57:31;;;;;;;7.77;1.47;;;;;;;;;;4957273;28;20747;-78
2022/09/21 04:59:57;;;;;;;6.93;1.43;;;;;;;;;;4971887;28;20215;-79
2022/09/21 05:02:23;;;;;;;4.77;1.37;;;;;;;;;;4940677;29;20697;-78
2022/09/21 05:04:49;;;;;;;4.50;1.30;;;;;;;;;;4972529;28;20195;-78
2022/09/21 05:07:15;;;;;;;3.37;1.20;;;;;;;;;;4939922;29;20289;-78
2022/09/21 05:12:26;;;;;;;4.47;1.40;;;;;;;;;;4956844;29;20200;-79
2022/09/21 05:14:52;;;;;;;6.67;1.50;;;;;;;;;;4971668;28;20569;-79
2022/09/21 05:17:21;;;;;;;5.63;1.70;;;;;;;;;;4955441;28;20187;-79
2022/09/21 05:19:47;;;;;;;5.90;1.60;;;;;;;;;;5026161;22;20236;-77
2022/09/21 05:22:13;;;;;;;5.00;1.73;;;;;;;;;;4974099;28;20195;-77
2022/09/21 05:24:39;;;;;;;10.37;2.00;;;;;;;;;;4974166;28;20572;-77
2022/09/21 05:27:06;;;;;;;15.27;2.13;;;;;;;;;;4958313;28;20291;-77
2022/09/21 05:29:32;;;;;;;13.23;2.00;;;;;;;;;;4973882;28;20693;-77
2022/09/21 05:32:20;;;;;;;7.57;1.83;;;;;;;;;;4974172;28;20236;-77
2022/09/21 05:34:52;;;;;;;21.83;2.70;;;;;;;;;;4973992;28;20669;-77
2022/09/21 05:37:40;;;;;;;27.93;2.97;;;;;;;;;;4975320;28;20271;-77
2022/09/21 05:40:07;;;;;;;11.60;1.90;;;;;;;;;;4973756;28;20201;-77
2022/09/21 05:42:33;;;;;;;10.67;1.80;;;;;;;;;;4973744;28;20184;-77
2022/09/21 05:44:59;;;;;;;6.13;1.50;;;;;;;;;;4973844;28;20215;-76
2022/09/21 05:47:49;;;;;;;6.67;1.60;;;;;;;;;;4973440;28;20203;-77
2022/09/21 05:50:18;;;;;;;5.43;1.50;;;;;;;;;;4972993;28;20229;-77
2022/09/21 05:52:44;;;;;;;3.80;1.40;;;;;;;;;;4973749;28;20186;-77
2022/09/21 05:55:17;;;;;;;15.00;11.63;;;;;;;;;;4974938;28;20202;-77
2022/09/21 05:57:46;;;;;;;29.87;17.83;;;;;;;;;;4974830;28;20646;-78
2022/09/21 06:00:19;;;;;;;9.73;2.40;;;;;;;;;;4989224;28;20198;-78
2022/09/21 06:02:52;;;;;;;8.17;1.90;;;;;;;;;;4973569;28;20175;-78
2022/09/21 06:05:18;;;;;;;6.70;1.77;;;;;;;;;;4973749;28;20187;-77
2022/09/21 06:07:44;;;;;;;13.07;2.57;;;;;;;;;;4973425;28;20180;-77
2022/09/21 06:10:12;;;;;;;6.87;2.20;;;;;;;;;;4957050;28;20201;-77
2022/09/21 06:12:38;;;;;;;6.13;2.33;;;;;;;;;;4973223;28;20181;-77
2022/09/21 06:15:05;;;;;;;11.33;2.30;;;;;;;;;;4973200;28;20704;-77
2022/09/21 06:17:32;;;;;;;8.70;2.10;;;;;;;;;;4957367;28;20227;-78
2022/09/21 06:19:58;;;;;;;10.13;2.27;;;;;;;;;;4972834;28;20581;-77
2022/09/21 06:22:24;;;;;;;10.37;2.37;;;;;;;;;;4957145;28;20182;-77
2022/09/21 06:24:50;;;;;;;14.13;3.93;;;;;;;;;;4973019;28;20174;-77
2022/09/21 06:27:16;;;;;;;8.07;2.40;;;;;;;;;;4956884;28;20181;-78
2022/09/21 06:29:42;;;;;;;4.80;2.00;;;;;;;;;;4956660;28;20199;-77
2022/09/21 06:32:08;;;;;;;12.07;2.50;;;;;;;;;;4956961;28;20281;-77
2022/09/21 06:34:34;;;;;;;8.23;2.27;;;;;;;;;;4956972;28;20184;-77
2022/09/21 06:36:59;;;;;;;17.33;2.53;;;;;;;;;;4956854;28;20191;-77
2022/09/21 06:39:25;;;;;;;7.07;2.20;;;;;;;;;;4972618;28;20225;-77
2022/09/21 06:41:52;;;;;;;15.80;2.40;;;;;;;;;;4956574;28;20213;-77
2022/09/21 06:44:18;;;;;;;20.47;2.70;;;;;;;;;;4972927;28;20224;-78
2022/09/21 06:46:44;;;;;;;17.20;2.50;;;;;;;;;;4956788;28;20183;-78
2022/09/21 06:49:10;;;;;;;8.97;2.57;;;;;;;;;;4956406;28;20198;-78
2022/09/21 06:51:36;;;;;;;8.17;3.07;;;;;;;;;;4972778;28;20193;-78
2022/09/21 06:54:02;;;;;;;9.73;2.47;;;;;;;;;;4956466;28;20583;-78
2022/09/21 06:56:27;;;;;;;13.17;2.40;;;;;;;;;;4972442;28;20272;-78
2022/09/21 06:58:54;;;;;;;14.13;2.30;;;;;;;;;;4955766;28;20209;-78
2022/09/21 07:01:20;;;;;;;8.33;2.03;;;;;;;;;;4972290;28;20213;-78
2022/09/21 07:03:49;;;;;;;11.03;1.87;;;;;;;;;;4956530;28;20185;-77
2022/09/21 07:06:16;;;;;;;6.17;1.73;;;;;;;;;;4972425;28;20175;-78
2022/09/21 07:08:43;;;;;;;18.70;2.67;;;;;;;;;;4955228;28;20300;-78
2022/09/21 07:11:09;;;;;;;10.27;2.00;;;;;;;;;;4961781;28;20272;-77
2022/09/21 07:13:36;;;;;;;1.80;1.70;;;;;;;;;;4973012;28;20187;-78
2022/09/21 07:16:05;;;;;;;2.90;1.70;;;;;;;;;;4973067;28;20571;-78
2022/09/21 07:18:33;;;;;;;3.97;1.70;;;;;;;;;;4971017;28;20225;-78
2022/09/21 07:21:01;;;;;;;7.67;1.90;;;;;;;;;;4962838;28;20214;-78
2022/09/21 07:23:27;;;;;;;17.10;2.57;;;;;;;;;;4953258;29;20267;-78
2022/09/21 07:25:53;;;;;;;12.50;2.10;;;;;;;;;;4956338;28;20326;-78
2022/09/21 07:28:19;;;;;;;15.40;3.80;;;;;;;;;;4952701;28;20547;-78
2022/09/21 07:30:45;;;;;;;3.27;1.60;;;;;;;;;;4969082;28;20187;-78
2022/09/21 07:33:11;;;;;;;2.00;1.50;;;;;;;;;;4953575;28;20528;-78
2022/09/21 07:35:37;;;;;;;4.83;2.27;;;;;;;;;;4956600;28;20188;-78
2022/09/21 07:38:26;;;;;;;4.13;1.30;;;;;;;;;;4972293;28;20179;-78
2022/09/21 07:40:52;;;;;;;2.00;1.40;;;;;;;;;;4973864;28;20194;-78
2022/09/21 07:43:18;;;;;;;3.33;1.40;;;;;;;;;;4972415;28;20593;-78
2022/09/21 07:45:52;;;;;;;6.70;1.77;;;;;;;;;;4972406;28;20211;-78
2022/09/21 07:48:18;;;;;;;1.53;1.30;;;;;;;;;;4972396;28;20611;-78
2022/09/21 07:50:44;;;;;;;2.70;1.50;;;;;;;;;;4972194;28;20180;-78
2022/09/21 07:53:10;;;;;;;5.60;1.67;;;;;;;;;;4956761;28;20191;-78
2022/09/21 07:55:36;;;;;;;7.70;2.90;;;;;;;;;;4956431;28;20184;-78
2022/09/21 08:00:47;;;;;;;1.70;1.47;;;;;;;;;;4972525;28;20241;-78
2022/09/21 08:03:13;;;;;;;3.30;1.70;;;;;;;;;;4956276;28;20179;-78
2022/09/21 08:05:39;;;;;;;1.97;1.60;;;;;;;;;;4956483;28;20195;-78
2022/09/21 08:08:05;;;;;;;9.20;1.70;;;;;;;;;;4972198;28;20184;-78
2022/09/21 08:10:31;;;;;;;5.43;1.60;;;;;;;;;;4958533;28;20562;-78
2022/09/21 08:12:57;;;;;;;3.03;1.70;;;;;;;;;;4960067;28;20192;-78
2022/09/21 08:15:24;;;;;;;6.40;2.00;;;;;;;;;;4976313;28;20184;-78
2022/09/21 08:17:50;;;;;;;2.67;1.90;;;;;;;;;;4960087;28;20294;-78
2022/09/21 08:20:17;;;;;;;7.70;1.90;;;;;;;;;;4959670;28;20212;-78
2022/09/21 08:22:43;;;;;;;9.60;1.87;;;;;;;;;;4977003;28;20189;-78
2022/09/21 08:25:09;;;;;;;17.30;2.60;;;;;;;;;;4960020;28;20223;-78
2022/09/21 08:27:36;;;;;;;5.47;2.00;;;;;;;;;;4975653;28;20168;-78
2022/09/21 08:30:02;;;;;;;2.13;1.93;;;;;;;;;;4975471;28;20192;-78
2022/09/21 08:32:29;;;;;;;2.30;1.93;;;;;;;;;;4959867;28;20184;-78
2022/09/21 08:34:55;;;;;;;2.83;2.13;;;;;;;;;;4959937;28;20647;-78
2022/09/21 08:37:40;;;;;;;3.30;1.97;;;;;;;;;;4975672;28;20208;-78
2022/09/21 08:40:07;;;;;;;7.10;2.30;;;;;;;;;;4975250;28;20216;-78
2022/09/21 08:42:33;;;;;;;6.03;2.57;;;;;;;;;;4975394;28;20600;-78
2022/09/21 08:45:01;;;;;;;2.40;2.20;;;;;;;;;;4975698;28;20217;-78
2022/09/21 08:47:33;;;;;;;5.27;2.40;;;;;;;;;;4975379;28;20201;-78
2022/09/21 08:50:01;;;;;;;3.27;2.10;;;;;;;;;;4975007;28;20236;-78
2022/09/21 08:52:27;;;;;;;5.73;2.30;;;;;;;;;;4975256;28;20178;-78
2022/09/21 08:54:56;;;;;;;4.47;2.50;;;;;;;;;;4975527;28;20211;-78
2022/09/21 08:57:23;;;;;;;12.77;2.70;;;;;;;;;;4975023;28;20244;-78
2022/09/21 08:59:49;;;;;;;4.77;2.80;;;;;;;;;;4974879;28;20238;-78
2022/09/21 09:02:33;;;;;;;2.97;2.60;;;;;;;;;;4974995;28;20215;-78
2022/09/21 09:04:59;;;;;;;3.13;2.40;;;;;;;;;;4975296;28;20181;-78
2022/09/21 09:07:44;;;;;;;4.03;2.40;;;;;;;;;;4975062;28;20175;-78
2022/09/21 09:10:29;;;;;;;2.60;2.40;;;;;;;;;;4974720;28;20220;-78
2022/09/21 09:12:55;;;;;;;3.03;2.73;;;;;;;;;;4974943;28;20210;-78
2022/09/21 09:15:40;;;;;;;4.73;2.60;;;;;;;;;;4974813;28;20184;-78
2022/09/21 09:18:13;;;;;;;3.83;2.43;;;;;;;;;;4975013;28;20180;-77
2022/09/21 09:20:40;;;;;;;3.77;2.50;;;;;;;;;;4974317;28;20276;-77
2022/09/21 09:23:30;;;;;;;2.53;2.33;;;;;;;;;;4958378;28;20638;-78
2022/09/21 09:26:01;;;;;;;2.77;2.47;;;;;;;;;;4966341;28;20180;-78
2022/09/21 09:28:30;;;;;;;3.03;2.60;;;;;;;;;;4975426;28;20254;-78
2022/09/21 09:30:58;;;;;;;4.13;2.70;;;;;;;;;;4958585;28;20212;-78
2022/09/21 09:33:27;;;;;;;2.67;2.47;;;;;;;;;;4974532;28;20223;-78
2022/09/21 09:36:03;;;;;;;3.87;2.80;;;;;;;;;;4958669;28;20187;-78
2022/09/21 09:38:55;;;;;;;2.57;2.37;;;;;;;;;;4974568;28;20207;-78
2022/09/21 09:41:39;;;;;;;2.97;2.67;;;;;;;;;;4974248;28;20208;-78
2022/09/21 09:44:12;;;;;;;3.47;2.70;;;;;;;;;;4974766;28;20195;-78
2022/09/21 09:46:50;;;;;;;3.63;2.87;;;;;;;;;;4973711;28;20176;-78
2022/09/21 09:49:35;;;;;;;2.70;2.50;;;;;;;;;;4973892;28;20251;-78
2022/09/21 09:52:01;;;;;;;2.93;2.73;;;;;;;;;;4969449;28;20208;-78
2022/09/21 09:54:28;;;;;;;3.30;2.40;;;;;;;;;;4939276;28;20284;-78
2022/09/21 09:56:54;;;;;;;2.87;2.33;;;;;;;;;;4956054;28;20207;-78
2022/09/21 09:59:29;;;;;;;2.77;2.40;;;;;;;;;;4954430;28;20646;-79
2022/09/21 10:02:19;;;;;;;3.17;2.20;;;;;;;;;;4954592;28;20204;-78
2022/09/21 10:04:58;;;;;;;3.13;2.70;;;;;;;;;;4954805;28;20331;-78
2022/09/21 10:07:33;;;;;;;2.80;2.03;;;;;;;;;;4955487;28;20532;-77
2022/09/21 10:09:59;;;;;;;2.40;2.20;;;;;;;;;;4954400;28;20195;-76
2022/09/21 10:12:26;;;;;;;2.83;2.53;;;;;;;;;;4939011;28;20310;-76
2022/09/21 10:14:53;;;;;;;3.33;2.70;;;;;;;;;;4938854;28;20189;-76
2022/09/21 10:17:19;;;;;;;2.40;2.20;;;;;;;;;;4955558;28;20174;-77
2022/09/21 10:19:45;;;;;;;2.23;2.03;;;;;;;;;;4954257;28;20212;-77
2022/09/21 10:22:15;;;;;;;2.50;2.10;;;;;;;;;;4955655;28;20209;-79
2022/09/21 10:24:45;;;;;;;3.27;2.03;;;;;;;;;;4955003;28;20642;-79
2022/09/21 10:27:15;;;;;;;2.10;1.90;;;;;;;;;;4956079;28;20178;-79
2022/09/21 10:29:46;;;;;;;1.87;1.77;;;;;;;;;;4954196;28;20197;-79
2022/09/21 10:32:12;;;;;;;2.00;1.80;;;;;;;;;;4971293;28;20184;-76
2022/09/21 10:34:40;;;;;;;2.17;1.57;;;;;;;;;;4972890;28;20550;-79
2022/09/21 10:37:27;;;;;;;1.87;1.67;;;;;;;;;;4957893;28;20194;-79
2022/09/21 10:39:53;;;;;;;2.27;1.77;;;;;;;;;;4973106;28;20286;-79
2022/09/21 10:42:20;;;;;;;2.80;1.80;;;;;;;;;;4973425;28;20471;-79
2022/09/21 10:44:47;;;;;;;2.53;1.80;;;;;;;;;;4973260;28;20658;-79
2022/09/21 10:47:18;;;;;;;1.60;1.50;;;;;;;;;;4957591;28;20271;-79
2022/09/21 10:49:46;;;;;;;2.70;1.50;;;;;;;;;;4974237;28;20202;-79
2022/09/21 10:52:12;;;;;;;1.70;1.30;;;;;;;;;;4957264;28;20671;-79
2022/09/21 10:54:39;;;;;;;1.40;1.10;;;;;;;;;;4973497;28;20271;-79
2022/09/21 10:57:10;;;;;;;2.10;1.20;;;;;;;;;;4974537;28;20172;-79
2022/09/21 10:59:36;;;;;;;1.10;0.90;;;;;;;;;;4956958;28;20204;-79
2022/09/21 11:02:22;;;;;;;1.57;0.87;;;;;;;;;;4973379;28;20208;-79
2022/09/21 11:04:51;;;;;;;1.93;1.13;;;;;;;;;;4973629;28;20267;-79
2022/09/21 11:07:22;;;;;;;2.03;1.00;;;;;;;;;;4957423;28;20180;-79
2022/09/21 11:09:48;;;;;;;2.90;1.20;;;;;;;;;;4972887;28;20200;-79
2022/09/21 11:12:17;;;;;;;0.90;0.80;;;;;;;;;;4973024;28;20180;-79
2022/09/21 11:14:47;;;;;;;1.57;0.80;;;;;;;;;;4973326;28;20180;-79
2022/09/21 11:17:30;;;;;;;1.60;0.80;;;;;;;;;;4973035;28;20674;-79
2022/09/21 11:20:02;;;;;;;1.23;0.80;;;;;;;;;;5008710;23;20243;-81
2022/09/21 11:22:35;;;;;;;2.70;0.97;;;;;;;;;;4992780;28;20190;-81
2022/09/21 11:25:04;;;;;;;1.83;0.90;;;;;;;;;;4992927;28;20172;-81
2022/09/21 11:27:34;;;;;;;1.33;0.83;;;;;;;;;;4992655;28;20175;-81
2022/09/21 11:30:09;;;;;;;0.80;0.70;;;;;;;;;;4992608;28;20206;-81
2022/09/21 11:32:35;;;;;;;0.83;0.60;;;;;;;;;;4994229;28;20225;-81
2022/09/21 11:35:20;;;;;;;2.37;1.00;;;;;;;;;;5009472;28;20230;-81
2022/09/21 11:38:03;;;;;;;1.37;0.80;;;;;;;;;;5009400;28;20179;-81
2022/09/21 11:40:33;;;;;;;2.23;1.20;;;;;;;;;;5008603;28;20219;-81
2022/09/21 11:43:18;;;;;;;1.80;0.90;;;;;;;;;;5009260;28;20219;-81
2022/09/21 11:46:14;;;;;;;1.43;0.83;;;;;;;;;;5011944;28;20180;-81
2022/09/21 11:48:46;;;;;;;1.10;0.80;;;;;;;;;;4978326;28;20191;-81
2022/09/21 11:51:23;;;;;;;3.27;1.87;;;;;;;;;;5013146;28;20211;-81
2022/09/21 11:54:07;;;;;;;1.50;1.10;;;;;;;;;;5013197;28;20187;-80
2022/09/21 11:56:39;;;;;;;3.67;0.80;;;;;;;;;;5012473;28;20620;-81
2022/09/21 11:59:18;;;;;;;1.57;0.60;;;;;;;;;;5012357;28;20210;-81
2022/09/21 12:01:47;;;;;;;0.83;0.50;;;;;;;;;;5012965;28;20207;-81
2022/09/21 12:04:17;;;;;;;1.77;0.80;;;;;;;;;;5012698;28;20199;-81
2022/09/21 12:06:46;;;;;;;1.20;0.80;;;;;;;;;;5012298;28;20172;-81
2022/09/21 12:09:22;;;;;;;1.13;0.80;;;;;;;;;;5012378;28;20203;-81
2022/09/21 12:11:58;;;;;;;0.90;0.50;;;;;;;;;;5012645;28;20183;-81
2022/09/21 12:14:33;;;;;;;1.57;0.90;;;;;;;;;;5012951;28;20269;-81
2022/09/21 12:17:04;;;;;;;1.10;0.60;;;;;;;;;;5012479;28;20183;-81
2022/09/21 12:19:32;;;;;;;0.90;0.60;;;;;;;;;;5012026;28;20222;-80
2022/09/21 12:22:10;;;;;;;1.83;0.60;;;;;;;;;;5011997;28;20254;-81
2022/09/21 12:24:54;;;;;;;0.60;0.60;;;;;;;;;;5012346;28;20176;-80
2022/09/21 12:27:20;;;;;;;2.47;0.70;;;;;;;;;;5012081;28;20172;-81
2022/09/21 12:29:51;;;;;;;2.53;1.30;;;;;;;;;;5011970;28;20200;-81
2022/09/21 12:32:28;;;;;;;0.90;0.80;;;;;;;;;;5012441;28;20559;-81
2022/09/21 12:35:00;;;;;;;2.60;1.73;;;;;;;;;;5011953;28;20314;-81
2022/09/21 12:37:32;;;;;;;1.20;0.87;;;;;;;;;;5011746;28;20192;-81
2022/09/21 12:40:15;;;;;;;1.20;0.70;;;;;;;;;;5011798;28;20204;-80
2022/09/21 12:42:45;;;;;;;0.87;0.60;;;;;;;;;;5011684;28;20274;-80
2022/09/21 12:45:15;;;;;;;1.30;0.70;;;;;;;;;;5012373;28;20183;-81
2022/09/21 12:47:44;;;;;;;4.20;3.70;;;;;;;;;;5012142;28;20392;-81
2022/09/21 12:50:19;;;;;;;3.28;1.48;;;;;;;;;;5012106;28;20271;-81
2022/09/21 12:52:45;;;;;;;2.70;1.98;;;;;;;;;;5012149;28;20183;-80
2022/09/21 12:55:34;;;;;;;1.17;0.90;;;;;;;;;;5012669;28;20172;-81
2022/09/21 12:58:10;;;;;;;1.98;0.80;;;;;;;;;;5012013;28;20552;-80
2022/09/21 13:00:42;;;;;;;0.80;0.80;;;;;;;;;;5012027;28;20214;-81
2022/09/21 13:03:18;;;;;;;0.90;0.70;;;;;;;;;;5011901;28;20178;-80
2022/09/21 13:06:05;;;;;;;1.92;0.80;;;;;;;;;;5011939;28;20177;-81
2022/09/21 13:08:40;;;;;;;1.40;0.65;;;;;;;;;;5011909;28;20269;-81
2022/09/21 13:11:06;;;;;;;2.13;0.80;;;;;;;;;;4995430;28;20187;-81
2022/09/21 13:13:32;;;;;;;2.00;0.80;;;;;;;;;;4995437;28;20607;-81
2022/09/21 13:16:00;;;;;;;2.53;0.87;;;;;;;;;;5011706;28;20214;-81
2022/09/21 13:18:28;;;;;;;1.80;0.80;;;;;;;;;;4994937;28;20207;-81
2022/09/21 13:20:54;;;;;;;2.97;0.80;;;;;;;;;;5010882;28;20211;-81
2022/09/21 13:23:23;;;;;;;1.47;0.80;;;;;;;;;;5011306;28;20218;-81
2022/09/21 13:25:57;;;;;;;2.07;0.80;;;;;;;;;;5011343;28;20176;-80
2022/09/21 13:28:40;;;;;;;1.20;0.80;;;;;;;;;;5011167;28;20765;-80
2022/09/21 13:31:18;;;;;;;2.30;0.90;;;;;;;;;;5010962;28;20182;-81
2022/09/21 13:34:03;;;;;;;1.43;0.60;;;;;;;;;;5011490;28;20230;-82
2022/09/21 13:36:32;;;;;;;2.00;1.20;;;;;;;;;;4996234;28;20182;-81
2022/09/21 13:39:18;;;;;;;0.88;0.70;;;;;;;;;;5011444;28;20697;-81
2022/09/21 13:41:44;;;;;;;1.20;0.82;;;;;;;;;;5011649;28;20230;-80
2022/09/21 13:44:29;;;;;;;0.90;0.80;;;;;;;;;;5010811;28;20592;-80
2022/09/21 13:46:56;;;;;;;1.63;0.70;;;;;;;;;;5010928;28;20234;-80
2022/09/21 13:49:28;;;;;;;2.15;0.80;;;;;;;;;;4994618;28;20206;-80
2022/09/21 13:52:07;;;;;;;0.90;0.77;;;;;;;;;;5011376;28;20215;-81
2022/09/21 13:54:39;;;;;;;1.77;0.80;;;;;;;;;;5010715;28;20233;-80
2022/09/21 13:57:14;;;;;;;1.00;0.82;;;;;;;;;;5010637;28;20187;-80
2022/09/21 13:59:41;;;;;;;1.55;1.00;;;;;;;;;;5010782;28;20230;-81
2022/09/21 14:02:22;;;;;;;1.23;0.88;;;;;;;;;;4994749;28;20246;-80
2022/09/21 14:04:49;;;;;;;2.10;0.80;;;;;;;;;;5010812;28;20168;-80
2022/09/21 14:07:16;;;;;;;1.03;0.73;;;;;;;;;;4994153;28;20184;-80
2022/09/21 14:10:03;;;;;;;1.53;0.90;;;;;;;;;;5010037;28;20192;-80
2022/09/21 14:12:34;;;;;;;1.30;0.70;;;;;;;;;;5010228;28;20183;-80
2022/09/21 14:15:18;;;;;;;1.00;0.67;;;;;;;;;;5010582;28;20176;-81
2022/09/21 14:17:44;;;;;;;1.67;0.70;;;;;;;;;;5010257;28;20183;-81
2022/09/21 14:20:30;;;;;;;0.80;0.67;;;;;;;;;;5009575;28;20219;-81
2022/09/21 14:23:18;;;;;;;1.30;0.80;;;;;;;;;;5009915;28;20213;-80
2022/09/21 14:25:47;;;;;;;1.40;0.77;;;;;;;;;;5010089;28;20188;-81
2022/09/21 14:28:15;;;;;;;1.07;0.70;;;;;;;;;;5010218;28;20171;-81
2022/09/21 14:30:48;;;;;;;1.10;0.60;;;;;;;;;;5009745;28;20203;-81
2022/09/21 14:33:25;;;;;;;1.93;0.70;;;;;;;;;;5010247;28;20251;-81
2022/09/21 14:35:51;;;;;;;1.27;0.70;;;;;;;;;;5010180;28;20183;-81
2022/09/21 14:38:31;;;;;;;1.43;0.70;;;;;;;;;;5009816;28;20222;-81
2022/09/21 14:40:59;;;;;;;5.87;4.60;;;;;;;;;;4993314;28;20214;-81
2022/09/21 14:43:36;;;;;;;2.93;2.40;;;;;;;;;;4993808;28;20186;-81
2022/09/21 14:46:09;;;;;;;1.17;1.00;;;;;;;;;;5009863;28;20171;-81
2022/09/21 14:48:40;;;;;;;1.13;0.90;;;;;;;;;;5009495;28;20262;-81
2022/09/21 14:51:07;;;;;;;0.82;0.75;;;;;;;;;;5010211;28;20176;-81
2022/09/21 14:53:54;;;;;;;1.27;0.70;;;;;;;;;;5009805;28;20179;-81
2022/09/21 14:56:25;;;;;;;1.15;0.98;;;;;;;;;;5009672;28;20199;-81
2022/09/21 14:59:11;;;;;;;1.42;0.68;;;;;;;;;;5009782;28;20199;-81
2022/09/21 15:01:40;;;;;;;1.10;0.70;;;;;;;;;;5009946;28;20227;-81
2022/09/21 15:04:24;;;;;;;1.55;0.90;;;;;;;;;;4993339;28;20695;-81